Capitol Logistics 455


KPDX
Portland International Airport
Portland, Oregon, US
KRFD
Chicago/Rockford International Airport
Rockford, Illinois, US

Activity Log

Date Flight Route Aircraft Duration
07/04/2019 CPX455 LAVAA6 PDT DLN RAP J82 FSD J16 MCW DBQ B738 3h 31m

Route Details

Aircraft Information
Primary: Boeing 737-800BCF
Backup: Not Available
Route Data
Distance: 1457nm
Sched. Duration: 3h 10m
Avg. Duration: 3h 31m (+21m)
Times Flown: 1
Recm'd Route: LAVAA6 PDT DLN RAP J82 FSD J16 MCW DBQ
Planned Altitude: 37,000ft
Origin Wx: KPDX 281153Z 00000KT 10SM R10R/4000VP6000FT FEW002 02/01 A3018 RMK AO2 SLP218 T00170006 10083 20017 56017
Dest. Wx: KRFD 281154Z 30006KT 10SM BKN060 OVC075 M07/M12 A3005 RMK AO2 SLP189 T10671117 11067 21072 55001
Notes:

Financial History
Total Freight: 13,200lbs
Average Load: 13,200lbs/flt
Fuel Used: 15,108lbs
Avg. Fuel Used: 15,108lbs/flt
Fuel Expense: $13,144
Avg. Fuel Expense: $13,144
Avg. Fuel Cost: $0.87/lbs
Total Gross Income: $17,028
Pilot Pay: $229
Total Expenses: $1,891
Total Revenue: $1,149
Average Revenue: $17,028.00